Los Angeles, CA (90081)

9:03 AM PDT on August 02, 2015 (GMT -0700)
Downtown Los Angeles | | Change Station
CLOSE
Current Station
Personal Weather Station
Location: Los Angeles, CA
Elevation: 343 ft
Nearby Weather Stations

Elev 343 ft 34.06 °N, 118.26 °W | Updated 2 minutes ago

Overcast
Overcast
70.5 °F
Feels Like 70.5 °F
N
5.0
Wind Variable Wind from WNW
Gusts 8.0 mph

Today
High -- | Low -- °F
--% Chance of Precip.
Yesterday
High -- | Low -- °F
Precip. -- in
6:05 AM 7:53 PM
Waning Gibbous, 93% visible
Pressure 29.91 in
Visibility 8.0 miles
Clouds Overcast 1500 ft
Dew Point 65 °F
Humidity 84%
Rainfall 0.00 in
Snow Depth Not available.
UV 1 out of 12
Pollen 3.70 out of 12
Air Quality Not available.
Flu Activity Not available.
METAR KCQT 021547Z AUTO 00000KT 8SM OVC015 22/17 A2992 RMK AO2 SLP129 T02170172 $

More Conditions Fewer Conditions

Pressure 29.91 in
Visibility 8.0 miles
Clouds Overcast 1500 ft
Dew Point 65 °F
Humidity 84%
Rainfall 0.00 in
Snow Depth Not available.
UV 1 out of 12
Pollen 3.70 out of 12
Air Quality Not available.
Flu Activity Not available.
METAR KCQT 021547Z AUTO 00000KT 8SM OVC015 22/17 A2992 RMK AO2 SLP129 T02170172 $

More Conditions Fewer Conditions

10-Day Weather Forecast

×

Almanac

Astronomy

Aug. 02, 2015 Rise Set
Actual Time
Civil Twilight
Nautical Twilight
Astronomical Twilight
Moon
Length of Visible Light
Length of Day
Tomorrow will be .
, % of the Moon is Illuminated

Today's Extremes

State Highs State Lows

Community

WunderPhotos

Upload Photos

1,843,285 photos uploaded!

WunderBlogs® & News

Nearby

Air Quality

  Air Quality AQ Index Pollutant
Not available.

Snow Depth

Station Depth Elevation

Earthquake Activity

City Distance Mag. Time & Date
Minimum magnitude displayed is 2.5.

Coastal Water Temperatures

Place Temperature

Stations

Nearby Weather Stations

Station Location Temp. Windchill Dew Point Humidity Wind Precip. Elev Updated Type